sensor_id;sensor_type;location;lat;lon;timestamp;temperature;humidity
23291;DHT22;11814;44.686;10.842;2024-01-10T00:02:01;4.10;98.10
23291;DHT22;11814;44.686;10.842;2024-01-10T00:04:27;4.00;98.50
23291;DHT22;11814;44.686;10.842;2024-01-10T00:06:52;4.00;99.10
23291;DHT22;11814;44.686;10.842;2024-01-10T00:09:18;4.00;99.70
23291;DHT22;11814;44.686;10.842;2024-01-10T00:11:44;4.00;99.80
23291;DHT22;11814;44.686;10.842;2024-01-10T00:14:09;4.00;99.90
23291;DHT22;11814;44.686;10.842;2024-01-10T00:16:36;3.90;99.90
23291;DHT22;11814;44.686;10.842;2024-01-10T00:19:01;3.90;99.90
23291;DHT22;11814;44.686;10.842;2024-01-10T00:21:28;3.90;99.90
23291;DHT22;11814;44.686;10.842;2024-01-10T00:23:53;3.90;99.90
23291;DHT22;11814;44.686;10.842;2024-01-10T00:26:19;3.80;99.90
23291;DHT22;11814;44.686;10.842;2024-01-10T00:28:45;3.80;99.90
23291;DHT22;11814;44.686;10.842;2024-01-10T00:31:13;3.80;99.90
23291;DHT22;11814;44.686;10.842;2024-01-10T00:33:39;3.80;99.90
23291;DHT22;11814;44.686;10.842;2024-01-10T00:36:06;3.80;99.90
23291;DHT22;11814;44.686;10.842;2024-01-10T00:38:32;3.80;99.90
23291;DHT22;11814;44.686;10.842;2024-01-10T00:40:57;3.70;99.90
23291;DHT22;11814;44.686;10.842;2024-01-10T00:43:23;3.60;99.90
23291;DHT22;11814;44.686;10.842;2024-01-10T00:45:49;3.70;99.90
23291;DHT22;11814;44.686;10.842;2024-01-10T00:48:14;3.70;99.90
23291;DHT22;11814;44.686;10.842;2024-01-10T00:50:40;3.70;99.90
23291;DHT22;11814;44.686;10.842;2024-01-10T00:53:05;3.80;99.90
23291;DHT22;11814;44.686;10.842;2024-01-10T00:55:31;3.70;99.90
23291;DHT22;11814;44.686;10.842;2024-01-10T00:57:57;3.70;99.90
23291;DHT22;11814;44.686;10.842;2024-01-10T01:00:22;3.80;99.90
23291;DHT22;11814;44.686;10.842;2024-01-10T01:02:48;3.70;99.90
23291;DHT22;11814;44.686;10.842;2024-01-10T01:05:13;3.80;99.90
23291;DHT22;11814;44.686;10.842;2024-01-10T01:07:39;3.80;99.90
23291;DHT22;11814;44.686;10.842;2024-01-10T01:10:05;3.90;99.90
23291;DHT22;11814;44.686;10.842;2024-01-10T01:12:34;3.90;99.90
23291;DHT22;11814;44.686;10.842;2024-01-10T01:14:59;3.90;99.90
23291;DHT22;11814;44.686;10.842;2024-01-10T01:17:25;3.90;99.90
23291;DHT22;11814;44.686;10.842;2024-01-10T01:19:50;4.00;99.90
23291;DHT22;11814;44.686;10.842;2024-01-10T01:22:16;4.00;99.90
23291;DHT22;11814;44.686;10.842;2024-01-10T01:24:42;4.00;99.90
23291;DHT22;11814;44.686;10.842;2024-01-10T01:27:07;4.10;99.90
23291;DHT22;11814;44.686;10.842;2024-01-10T01:29:33;4.10;99.90
23291;DHT22;11814;44.686;10.842;2024-01-10T01:31:58;4.10;99.90
23291;DHT22;11814;44.686;10.842;2024-01-10T01:34:24;4.20;99.90
23291;DHT22;11814;44.686;10.842;2024-01-10T01:36:49;4.20;99.90
23291;DHT22;11814;44.686;10.842;2024-01-10T01:39:17;4.30;99.90
23291;DHT22;11814;44.686;10.842;2024-01-10T01:41:43;4.40;99.90
23291;DHT22;11814;44.686;10.842;2024-01-10T01:44:08;4.40;99.90
23291;DHT22;11814;44.686;10.842;2024-01-10T01:46:35;4.40;99.90
23291;DHT22;11814;44.686;10.842;2024-01-10T01:49:00;4.40;99.90
23291;DHT22;11814;44.686;10.842;2024-01-10T01:51:28;4.40;99.90
23291;DHT22;11814;44.686;10.842;2024-01-10T01:53:54;4.40;99.90
23291;DHT22;11814;44.686;10.842;2024-01-10T01:56:21;4.40;99.90
23291;DHT22;11814;44.686;10.842;2024-01-10T01:58:49;4.30;99.90
23291;DHT22;11814;44.686;10.842;2024-01-10T02:01:15;4.30;99.90
23291;DHT22;11814;44.686;10.842;2024-01-10T02:03:41;4.30;99.90
23291;DHT22;11814;44.686;10.842;2024-01-10T02:06:07;4.30;99.90
23291;DHT22;11814;44.686;10.842;2024-01-10T02:08:34;4.20;99.90
23291;DHT22;11814;44.686;10.842;2024-01-10T02:11:03;4.20;99.90
23291;DHT22;11814;44.686;10.842;2024-01-10T02:13:29;4.20;99.90
23291;DHT22;11814;44.686;10.842;2024-01-10T02:15:55;4.20;99.90
23291;DHT22;11814;44.686;10.842;2024-01-10T02:18:22;4.20;99.90
23291;DHT22;11814;44.686;10.842;2024-01-10T02:20:47;4.20;99.90
23291;DHT22;11814;44.686;10.842;2024-01-10T02:23:13;4.20;99.90
23291;DHT22;11814;44.686;10.842;2024-01-10T02:25:40;4.10;99.90
23291;DHT22;11814;44.686;10.842;2024-01-10T02:28:06;4.10;99.90
23291;DHT22;11814;44.686;10.842;2024-01-10T02:30:32;4.10;99.90
23291;DHT22;11814;44.686;10.842;2024-01-10T02:32:58;4.10;99.90
23291;DHT22;11814;44.686;10.842;2024-01-10T02:35:24;4.20;99.90
23291;DHT22;11814;44.686;10.842;2024-01-10T02:37:50;4.10;99.90
23291;DHT22;11814;44.686;10.842;2024-01-10T02:40:17;4.00;99.90
23291;DHT22;11814;44.686;10.842;2024-01-10T02:42:42;4.00;99.90
23291;DHT22;11814;44.686;10.842;2024-01-10T02:45:08;4.00;99.90
23291;DHT22;11814;44.686;10.842;2024-01-10T02:47:34;4.00;99.90
23291;DHT22;11814;44.686;10.842;2024-01-10T02:50:00;4.00;99.90
23291;DHT22;11814;44.686;10.842;2024-01-10T02:52:25;4.00;99.90
23291;DHT22;11814;44.686;10.842;2024-01-10T02:54:51;4.00;99.90
23291;DHT22;11814;44.686;10.842;2024-01-10T02:57:17;4.00;99.90
23291;DHT22;11814;44.686;10.842;2024-01-10T02:59:42;4.00;99.90
23291;DHT22;11814;44.686;10.842;2024-01-10T03:02:08;4.00;99.90
23291;DHT22;11814;44.686;10.842;2024-01-10T03:04:34;4.00;99.90
23291;DHT22;11814;44.686;10.842;2024-01-10T03:06:59;3.90;99.90
23291;DHT22;11814;44.686;10.842;2024-01-10T03:09:25;3.90;99.90
23291;DHT22;11814;44.686;10.842;2024-01-10T03:11:50;3.80;99.90
23291;DHT22;11814;44.686;10.842;2024-01-10T03:14:16;3.80;99.90
23291;DHT22;11814;44.686;10.842;2024-01-10T03:16:42;3.80;99.90
23291;DHT22;11814;44.686;10.842;2024-01-10T03:19:07;3.70;99.90
23291;DHT22;11814;44.686;10.842;2024-01-10T03:21:33;3.70;99.90
23291;DHT22;11814;44.686;10.842;2024-01-10T03:24:00;3.70;99.90
23291;DHT22;11814;44.686;10.842;2024-01-10T03:26:26;3.70;99.90
23291;DHT22;11814;44.686;10.842;2024-01-10T03:28:52;3.70;99.90
23291;DHT22;11814;44.686;10.842;2024-01-10T03:31:18;3.70;99.90
23291;DHT22;11814;44.686;10.842;2024-01-10T03:33:44;3.80;99.90
23291;DHT22;11814;44.686;10.842;2024-01-10T03:36:13;3.70;99.90
23291;DHT22;11814;44.686;10.842;2024-01-10T03:38:39;3.70;99.90
23291;DHT22;11814;44.686;10.842;2024-01-10T03:41:05;3.70;99.90
23291;DHT22;11814;44.686;10.842;2024-01-10T03:43:30;3.70;99.90
23291;DHT22;11814;44.686;10.842;2024-01-10T03:45:57;3.70;99.90
23291;DHT22;11814;44.686;10.842;2024-01-10T03:48:23;3.70;99.90
23291;DHT22;11814;44.686;10.842;2024-01-10T03:50:48;3.70;99.90
23291;DHT22;11814;44.686;10.842;2024-01-10T03:53:14;3.80;99.90
23291;DHT22;11814;44.686;10.842;2024-01-10T03:55:40;3.60;99.90
23291;DHT22;11814;44.686;10.842;2024-01-10T03:58:05;3.60;99.90
23291;DHT22;11814;44.686;10.842;2024-01-10T04:00:31;3.60;99.90
23291;DHT22;11814;44.686;10.842;2024-01-10T04:02:56;3.50;99.90
23291;DHT22;11814;44.686;10.842;2024-01-10T04:05:22;3.50;99.90
23291;DHT22;11814;44.686;10.842;2024-01-10T04:07:50;3.50;99.90
23291;DHT22;11814;44.686;10.842;2024-01-10T04:10:16;3.60;99.90
23291;DHT22;11814;44.686;10.842;2024-01-10T04:12:42;3.50;99.90
23291;DHT22;11814;44.686;10.842;2024-01-10T04:15:08;3.50;99.90
23291;DHT22;11814;44.686;10.842;2024-01-10T04:17:34;3.50;99.90
23291;DHT22;11814;44.686;10.842;2024-01-10T04:20:00;3.40;99.90
23291;DHT22;11814;44.686;10.842;2024-01-10T04:22:25;3.40;99.90
23291;DHT22;11814;44.686;10.842;2024-01-10T04:24:51;3.40;99.90
23291;DHT22;11814;44.686;10.842;2024-01-10T04:27:17;3.40;99.90
23291;DHT22;11814;44.686;10.842;2024-01-10T04:29:45;3.40;99.90
23291;DHT22;11814;44.686;10.842;2024-01-10T04:32:11;3.40;99.90
23291;DHT22;11814;44.686;10.842;2024-01-10T04:34:37;3.40;99.90
23291;DHT22;11814;44.686;10.842;2024-01-10T04:37:03;3.40;99.90
23291;DHT22;11814;44.686;10.842;2024-01-10T04:39:28;3.40;99.90
23291;DHT22;11814;44.686;10.842;2024-01-10T04:41:55;3.40;99.90
23291;DHT22;11814;44.686;10.842;2024-01-10T04:44:20;3.50;99.90
23291;DHT22;11814;44.686;10.842;2024-01-10T04:46:46;3.50;99.90
23291;DHT22;11814;44.686;10.842;2024-01-10T04:49:12;3.50;99.90
23291;DHT22;11814;44.686;10.842;2024-01-10T04:51:38;3.60;99.90
23291;DHT22;11814;44.686;10.842;2024-01-10T04:54:04;3.40;99.90
23291;DHT22;11814;44.686;10.842;2024-01-10T04:56:30;3.50;99.90
23291;DHT22;11814;44.686;10.842;2024-01-10T04:58:55;3.40;99.90
23291;DHT22;11814;44.686;10.842;2024-01-10T05:01:21;3.40;99.90
23291;DHT22;11814;44.686;10.842;2024-01-10T05:03:47;3.40;99.90
23291;DHT22;11814;44.686;10.842;2024-01-10T05:06:12;3.40;99.90
23291;DHT22;11814;44.686;10.842;2024-01-10T05:08:38;3.40;99.90
23291;DHT22;11814;44.686;10.842;2024-01-10T05:11:03;3.40;99.90
23291;DHT22;11814;44.686;10.842;2024-01-10T05:13:29;3.30;99.90
23291;DHT22;11814;44.686;10.842;2024-01-10T05:15:55;3.30;99.90
23291;DHT22;11814;44.686;10.842;2024-01-10T05:18:21;3.30;99.90
23291;DHT22;11814;44.686;10.842;2024-01-10T05:20:47;3.20;99.90
23291;DHT22;11814;44.686;10.842;2024-01-10T05:23:12;3.20;99.90
23291;DHT22;11814;44.686;10.842;2024-01-10T05:25:38;3.20;99.90
23291;DHT22;11814;44.686;10.842;2024-01-10T05:28:04;3.20;99.90
23291;DHT22;11814;44.686;10.842;2024-01-10T05:30:30;3.20;99.90
23291;DHT22;11814;44.686;10.842;2024-01-10T05:32:57;3.20;99.90
23291;DHT22;11814;44.686;10.842;2024-01-10T05:35:24;3.20;99.90
23291;DHT22;11814;44.686;10.842;2024-01-10T05:37:51;3.20;99.90
23291;DHT22;11814;44.686;10.842;2024-01-10T05:40:18;3.20;99.90
23291;DHT22;11814;44.686;10.842;2024-01-10T05:42:44;3.10;99.90
23291;DHT22;11814;44.686;10.842;2024-01-10T05:45:10;3.10;99.90
23291;DHT22;11814;44.686;10.842;2024-01-10T05:47:36;3.10;99.90
23291;DHT22;11814;44.686;10.842;2024-01-10T05:50:02;3.10;99.90
23291;DHT22;11814;44.686;10.842;2024-01-10T05:52:31;3.10;99.90
23291;DHT22;11814;44.686;10.842;2024-01-10T05:54:57;3.10;99.90
23291;DHT22;11814;44.686;10.842;2024-01-10T05:57:23;3.10;99.90
23291;DHT22;11814;44.686;10.842;2024-01-10T05:59:48;3.20;99.90
23291;DHT22;11814;44.686;10.842;2024-01-10T06:02:14;3.20;99.90
23291;DHT22;11814;44.686;10.842;2024-01-10T06:04:42;3.20;99.90
23291;DHT22;11814;44.686;10.842;2024-01-10T06:07:07;3.20;99.90
23291;DHT22;11814;44.686;10.842;2024-01-10T06:09:33;3.20;99.90
23291;DHT22;11814;44.686;10.842;2024-01-10T06:11:59;3.20;99.90
23291;DHT22;11814;44.686;10.842;2024-01-10T06:14:24;3.30;99.90
23291;DHT22;11814;44.686;10.842;2024-01-10T06:16:50;3.30;99.90
23291;DHT22;11814;44.686;10.842;2024-01-10T06:19:15;3.30;99.90
23291;DHT22;11814;44.686;10.842;2024-01-10T06:21:41;3.40;99.90
23291;DHT22;11814;44.686;10.842;2024-01-10T06:24:07;3.40;99.90
23291;DHT22;11814;44.686;10.842;2024-01-10T06:26:33;3.40;99.90
23291;DHT22;11814;44.686;10.842;2024-01-10T06:28:59;3.40;99.90
23291;DHT22;11814;44.686;10.842;2024-01-10T06:31:24;3.50;99.90
23291;DHT22;11814;44.686;10.842;2024-01-10T06:33:50;3.40;99.90
23291;DHT22;11814;44.686;10.842;2024-01-10T06:36:15;3.50;99.90
23291;DHT22;11814;44.686;10.842;2024-01-10T06:38:41;3.40;99.90
23291;DHT22;11814;44.686;10.842;2024-01-10T06:41:08;3.40;99.90
23291;DHT22;11814;44.686;10.842;2024-01-10T06:43:34;3.40;99.90
23291;DHT22;11814;44.686;10.842;2024-01-10T06:46:00;3.30;99.90
23291;DHT22;11814;44.686;10.842;2024-01-10T06:48:25;3.40;99.90
23291;DHT22;11814;44.686;10.842;2024-01-10T06:50:51;3.50;99.90
23291;DHT22;11814;44.686;10.842;2024-01-10T06:53:16;3.60;99.90
23291;DHT22;11814;44.686;10.842;2024-01-10T06:55:42;3.70;99.90
23291;DHT22;11814;44.686;10.842;2024-01-10T06:58:08;3.80;99.90
23291;DHT22;11814;44.686;10.842;2024-01-10T07:00:33;3.70;99.90
23291;DHT22;11814;44.686;10.842;2024-01-10T07:03:01;3.70;99.90
23291;DHT22;11814;44.686;10.842;2024-01-10T07:05:27;3.70;99.90
23291;DHT22;11814;44.686;10.842;2024-01-10T07:07:53;3.80;99.90
23291;DHT22;11814;44.686;10.842;2024-01-10T07:10:19;3.70;99.90
23291;DHT22;11814;44.686;10.842;2024-01-10T07:12:45;3.60;99.90
23291;DHT22;11814;44.686;10.842;2024-01-10T07:15:10;3.70;99.90
23291;DHT22;11814;44.686;10.842;2024-01-10T07:17:37;3.80;99.90
23291;DHT22;11814;44.686;10.842;2024-01-10T07:20:03;3.80;99.90
23291;DHT22;11814;44.686;10.842;2024-01-10T07:22:29;3.80;99.90
23291;DHT22;11814;44.686;10.842;2024-01-10T07:24:54;3.80;99.90
23291;DHT22;11814;44.686;10.842;2024-01-10T07:27:20;3.80;99.90
23291;DHT22;11814;44.686;10.842;2024-01-10T07:29:45;3.80;99.90
23291;DHT22;11814;44.686;10.842;2024-01-10T07:32:11;3.80;99.90
23291;DHT22;11814;44.686;10.842;2024-01-10T07:34:40;3.80;99.90
23291;DHT22;11814;44.686;10.842;2024-01-10T07:37:05;3.80;99.90
23291;DHT22;11814;44.686;10.842;2024-01-10T07:39:31;3.80;99.90
23291;DHT22;11814;44.686;10.842;2024-01-10T07:41:57;3.80;99.90
23291;DHT22;11814;44.686;10.842;2024-01-10T07:44:23;3.90;99.90
23291;DHT22;11814;44.686;10.842;2024-01-10T07:46:49;3.90;99.90
23291;DHT22;11814;44.686;10.842;2024-01-10T07:49:19;3.90;99.90
23291;DHT22;11814;44.686;10.842;2024-01-10T07:51:47;3.90;99.90
23291;DHT22;11814;44.686;10.842;2024-01-10T07:54:12;4.00;99.90
23291;DHT22;11814;44.686;10.842;2024-01-10T07:56:38;4.10;99.90
23291;DHT22;11814;44.686;10.842;2024-01-10T07:59:05;4.10;99.90
23291;DHT22;11814;44.686;10.842;2024-01-10T08:01:30;4.10;99.90
23291;DHT22;11814;44.686;10.842;2024-01-10T08:03:56;4.30;99.90
23291;DHT22;11814;44.686;10.842;2024-01-10T08:06:22;4.20;99.90
23291;DHT22;11814;44.686;10.842;2024-01-10T08:08:49;4.20;99.90
23291;DHT22;11814;44.686;10.842;2024-01-10T08:11:16;4.30;99.90
23291;DHT22;11814;44.686;10.842;2024-01-10T08:13:41;4.30;99.90
23291;DHT22;11814;44.686;10.842;2024-01-10T08:16:07;4.40;99.90
23291;DHT22;11814;44.686;10.842;2024-01-10T08:18:34;4.60;99.90
23291;DHT22;11814;44.686;10.842;2024-01-10T08:21:00;4.70;99.90
23291;DHT22;11814;44.686;10.842;2024-01-10T08:23:26;4.90;99.90
23291;DHT22;11814;44.686;10.842;2024-01-10T08:25:51;5.00;99.90
23291;DHT22;11814;44.686;10.842;2024-01-10T08:28:17;5.10;99.90
23291;DHT22;11814;44.686;10.842;2024-01-10T08:30:42;5.10;99.90
23291;DHT22;11814;44.686;10.842;2024-01-10T08:33:08;5.30;99.90
23291;DHT22;11814;44.686;10.842;2024-01-10T08:35:33;5.40;99.90
23291;DHT22;11814;44.686;10.842;2024-01-10T08:37:59;5.50;99.90
23291;DHT22;11814;44.686;10.842;2024-01-10T08:40:25;5.50;99.90
23291;DHT22;11814;44.686;10.842;2024-01-10T08:42:52;5.60;99.90
23291;DHT22;11814;44.686;10.842;2024-01-10T08:45:17;5.60;99.90
23291;DHT22;11814;44.686;10.842;2024-01-10T08:47:43;5.60;99.90
23291;DHT22;11814;44.686;10.842;2024-01-10T08:50:09;5.60;99.90
23291;DHT22;11814;44.686;10.842;2024-01-10T08:52:35;5.60;99.90
23291;DHT22;11814;44.686;10.842;2024-01-10T08:55:05;5.60;99.90
23291;DHT22;11814;44.686;10.842;2024-01-10T08:57:31;5.50;99.90
23291;DHT22;11814;44.686;10.842;2024-01-10T08:59:57;5.50;99.90
23291;DHT22;11814;44.686;10.842;2024-01-10T09:02:23;5.40;99.90
23291;DHT22;11814;44.686;10.842;2024-01-10T09:04:49;5.40;99.90
23291;DHT22;11814;44.686;10.842;2024-01-10T09:07:15;5.40;99.90
23291;DHT22;11814;44.686;10.842;2024-01-10T09:09:43;5.50;99.90
23291;DHT22;11814;44.686;10.842;2024-01-10T09:12:09;5.50;99.90
23291;DHT22;11814;44.686;10.842;2024-01-10T09:14:34;5.50;99.90
23291;DHT22;11814;44.686;10.842;2024-01-10T09:17:00;5.60;99.90
23291;DHT22;11814;44.686;10.842;2024-01-10T09:19:29;5.60;99.90
23291;DHT22;11814;44.686;10.842;2024-01-10T09:21:55;5.70;99.90
23291;DHT22;11814;44.686;10.842;2024-01-10T09:24:21;5.80;99.90
23291;DHT22;11814;44.686;10.842;2024-01-10T09:26:47;5.90;99.90
23291;DHT22;11814;44.686;10.842;2024-01-10T09:29:12;6.10;99.90
23291;DHT22;11814;44.686;10.842;2024-01-10T09:31:38;6.10;99.90
23291;DHT22;11814;44.686;10.842;2024-01-10T09:34:04;6.20;99.90
23291;DHT22;11814;44.686;10.842;2024-01-10T09:36:30;6.20;99.90
23291;DHT22;11814;44.686;10.842;2024-01-10T09:38:56;6.40;99.90
23291;DHT22;11814;44.686;10.842;2024-01-10T09:41:21;6.50;99.90
23291;DHT22;11814;44.686;10.842;2024-01-10T09:43:48;6.50;99.50
23291;DHT22;11814;44.686;10.842;2024-01-10T09:46:14;6.50;98.80
23291;DHT22;11814;44.686;10.842;2024-01-10T09:48:40;6.60;98.30
23291;DHT22;11814;44.686;10.842;2024-01-10T09:51:07;6.70;97.60
23291;DHT22;11814;44.686;10.842;2024-01-10T09:53:35;6.80;97.10
23291;DHT22;11814;44.686;10.842;2024-01-10T09:56:04;6.80;96.60
23291;DHT22;11814;44.686;10.842;2024-01-10T09:58:31;6.90;96.30
23291;DHT22;11814;44.686;10.842;2024-01-10T10:00:59;6.90;96.20
23291;DHT22;11814;44.686;10.842;2024-01-10T10:03:25;7.10;95.60
23291;DHT22;11814;44.686;10.842;2024-01-10T10:05:51;7.10;94.90
23291;DHT22;11814;44.686;10.842;2024-01-10T10:08:17;7.30;94.20
23291;DHT22;11814;44.686;10.842;2024-01-10T10:10:49;7.40;93.50
23291;DHT22;11814;44.686;10.842;2024-01-10T10:13:33;7.70;93.00
23291;DHT22;11814;44.686;10.842;2024-01-10T10:16:02;7.90;92.30
23291;DHT22;11814;44.686;10.842;2024-01-10T10:18:29;8.20;91.60
23291;DHT22;11814;44.686;10.842;2024-01-10T10:21:08;8.40;91.00
23291;DHT22;11814;44.686;10.842;2024-01-10T10:23:35;8.30;90.40
23291;DHT22;11814;44.686;10.842;2024-01-10T10:26:10;8.40;89.80
23291;DHT22;11814;44.686;10.842;2024-01-10T10:28:36;8.40;88.40
23291;DHT22;11814;44.686;10.842;2024-01-10T10:31:02;8.30;87.30
23291;DHT22;11814;44.686;10.842;2024-01-10T10:33:28;8.20;86.40
23291;DHT22;11814;44.686;10.842;2024-01-10T10:35:55;8.20;85.60
23291;DHT22;11814;44.686;10.842;2024-01-10T10:38:24;8.10;85.00
23291;DHT22;11814;44.686;10.842;2024-01-10T10:40:49;8.00;84.20
23291;DHT22;11814;44.686;10.842;2024-01-10T10:43:18;8.00;83.70
23291;DHT22;11814;44.686;10.842;2024-01-10T10:45:47;8.00;83.20
23291;DHT22;11814;44.686;10.842;2024-01-10T10:48:16;8.00;83.10
23291;DHT22;11814;44.686;10.842;2024-01-10T10:50:50;8.10;83.20
23291;DHT22;11814;44.686;10.842;2024-01-10T10:53:21;8.30;83.00
23291;DHT22;11814;44.686;10.842;2024-01-10T10:55:48;8.50;82.50
23291;DHT22;11814;44.686;10.842;2024-01-10T10:58:15;8.60;82.00
23291;DHT22;11814;44.686;10.842;2024-01-10T11:00:41;8.70;81.70
23291;DHT22;11814;44.686;10.842;2024-01-10T11:03:12;8.70;81.30
23291;DHT22;11814;44.686;10.842;2024-01-10T11:05:40;8.80;81.10
23291;DHT22;11814;44.686;10.842;2024-01-10T11:08:08;8.70;80.30
23291;DHT22;11814;44.686;10.842;2024-01-10T11:10:36;8.70;79.90
23291;DHT22;11814;44.686;10.842;2024-01-10T11:24:19;8.40;79.30
23291;DHT22;11814;44.686;10.842;2024-01-10T11:26:45;8.20;79.20
23291;DHT22;11814;44.686;10.842;2024-01-10T11:29:11;8.20;79.10
23291;DHT22;11814;44.686;10.842;2024-01-10T11:31:38;8.10;78.80
23291;DHT22;11814;44.686;10.842;2024-01-10T11:34:04;8.10;78.90
23291;DHT22;11814;44.686;10.842;2024-01-10T11:36:30;8.10;78.90
23291;DHT22;11814;44.686;10.842;2024-01-10T11:39:00;8.00;78.80
23291;DHT22;11814;44.686;10.842;2024-01-10T11:41:36;8.00;78.60
23291;DHT22;11814;44.686;10.842;2024-01-10T11:46:48;8.00;78.60
23291;DHT22;11814;44.686;10.842;2024-01-10T11:49:17;7.90;78.70
23291;DHT22;11814;44.686;10.842;2024-01-10T11:51:46;7.90;78.60
23291;DHT22;11814;44.686;10.842;2024-01-10T11:54:40;8.00;78.80
23291;DHT22;11814;44.686;10.842;2024-01-10T11:57:27;8.10;79.00
23291;DHT22;11814;44.686;10.842;2024-01-10T11:59:54;8.10;77.90
23291;DHT22;11814;44.686;10.842;2024-01-10T12:02:22;8.10;77.90
23291;DHT22;11814;44.686;10.842;2024-01-10T12:04:49;8.10;78.00
23291;DHT22;11814;44.686;10.842;2024-01-10T12:07:17;8.20;77.90
23291;DHT22;11814;44.686;10.842;2024-01-10T12:09:42;8.10;77.60
23291;DHT22;11814;44.686;10.842;2024-01-10T12:12:08;8.30;77.80
23291;DHT22;11814;44.686;10.842;2024-01-10T12:14:36;8.20;77.50
23291;DHT22;11814;44.686;10.842;2024-01-10T12:17:02;8.20;77.80
23291;DHT22;11814;44.686;10.842;2024-01-10T12:19:30;8.20;77.50
23291;DHT22;11814;44.686;10.842;2024-01-10T12:21:55;8.20;77.60
23291;DHT22;11814;44.686;10.842;2024-01-10T12:24:21;8.20;77.60
23291;DHT22;11814;44.686;10.842;2024-01-10T12:26:48;8.10;77.60
23291;DHT22;11814;44.686;10.842;2024-01-10T12:29:20;8.20;77.80
23291;DHT22;11814;44.686;10.842;2024-01-10T12:31:46;8.20;77.90
23291;DHT22;11814;44.686;10.842;2024-01-10T12:34:12;8.20;77.50
23291;DHT22;11814;44.686;10.842;2024-01-10T12:36:39;8.20;77.30
23291;DHT22;11814;44.686;10.842;2024-01-10T12:39:05;8.30;77.50
23291;DHT22;11814;44.686;10.842;2024-01-10T12:41:34;8.30;77.40
23291;DHT22;11814;44.686;10.842;2024-01-10T12:44:00;8.40;77.00
23291;DHT22;11814;44.686;10.842;2024-01-10T12:46:29;8.40;77.60
23291;DHT22;11814;44.686;10.842;2024-01-10T12:49:07;8.40;77.00
23291;DHT22;11814;44.686;10.842;2024-01-10T12:51:33;8.40;76.90
23291;DHT22;11814;44.686;10.842;2024-01-10T12:54:01;8.50;76.80
23291;DHT22;11814;44.686;10.842;2024-01-10T12:56:29;8.60;76.30
23291;DHT22;11814;44.686;10.842;2024-01-10T12:58:55;9.00;76.10
23291;DHT22;11814;44.686;10.842;2024-01-10T13:01:22;9.30;75.40
23291;DHT22;11814;44.686;10.842;2024-01-10T13:03:48;9.70;75.30
23291;DHT22;11814;44.686;10.842;2024-01-10T13:06:14;10.20;75.20
23291;DHT22;11814;44.686;10.842;2024-01-10T13:08:41;10.60;74.20
23291;DHT22;11814;44.686;10.842;2024-01-10T13:11:07;10.70;72.80
23291;DHT22;11814;44.686;10.842;2024-01-10T13:13:38;10.60;72.30
23291;DHT22;11814;44.686;10.842;2024-01-10T13:16:04;10.50;71.90
23291;DHT22;11814;44.686;10.842;2024-01-10T13:18:30;10.30;70.70
23291;DHT22;11814;44.686;10.842;2024-01-10T13:20:55;9.90;70.70
23291;DHT22;11814;44.686;10.842;2024-01-10T13:23:21;9.60;70.70
23291;DHT22;11814;44.686;10.842;2024-01-10T13:25:50;9.40;71.50
23291;DHT22;11814;44.686;10.842;2024-01-10T13:28:17;9.40;72.00
23291;DHT22;11814;44.686;10.842;2024-01-10T13:30:43;9.20;71.30
23291;DHT22;11814;44.686;10.842;2024-01-10T13:33:09;8.90;71.70
23291;DHT22;11814;44.686;10.842;2024-01-10T13:35:36;8.80;72.70
23291;DHT22;11814;44.686;10.842;2024-01-10T13:38:02;8.80;72.30
23291;DHT22;11814;44.686;10.842;2024-01-10T13:40:28;8.70;72.30
23291;DHT22;11814;44.686;10.842;2024-01-10T13:42:53;8.50;72.60
23291;DHT22;11814;44.686;10.842;2024-01-10T13:45:20;8.70;72.70
23291;DHT22;11814;44.686;10.842;2024-01-10T13:47:46;8.50;72.70
23291;DHT22;11814;44.686;10.842;2024-01-10T13:50:12;8.50;73.00
23291;DHT22;11814;44.686;10.842;2024-01-10T13:52:38;8.40;73.00
23291;DHT22;11814;44.686;10.842;2024-01-10T13:55:04;8.30;73.40
23291;DHT22;11814;44.686;10.842;2024-01-10T13:57:30;8.30;74.00
23291;DHT22;11814;44.686;10.842;2024-01-10T13:59:58;8.30;74.00
23291;DHT22;11814;44.686;10.842;2024-01-10T14:02:24;8.30;73.90
23291;DHT22;11814;44.686;10.842;2024-01-10T14:04:50;8.20;73.70
23291;DHT22;11814;44.686;10.842;2024-01-10T14:07:16;8.20;73.90
23291;DHT22;11814;44.686;10.842;2024-01-10T14:09:41;8.20;74.00
23291;DHT22;11814;44.686;10.842;2024-01-10T14:12:07;8.20;73.90
23291;DHT22;11814;44.686;10.842;2024-01-10T14:14:33;8.10;73.70
23291;DHT22;11814;44.686;10.842;2024-01-10T14:16:58;8.10;73.90
23291;DHT22;11814;44.686;10.842;2024-01-10T14:19:24;8.00;73.80
23291;DHT22;11814;44.686;10.842;2024-01-10T14:21:49;7.90;73.80
23291;DHT22;11814;44.686;10.842;2024-01-10T14:24:15;7.80;74.00
23291;DHT22;11814;44.686;10.842;2024-01-10T14:26:41;7.70;74.60
23291;DHT22;11814;44.686;10.842;2024-01-10T14:29:07;7.70;74.90
23291;DHT22;11814;44.686;10.842;2024-01-10T14:31:34;7.60;75.30
23291;DHT22;11814;44.686;10.842;2024-01-10T14:33:59;7.70;76.10
23291;DHT22;11814;44.686;10.842;2024-01-10T14:36:25;7.70;76.20
23291;DHT22;11814;44.686;10.842;2024-01-10T14:38:51;7.80;76.30
23291;DHT22;11814;44.686;10.842;2024-01-10T14:41:16;7.80;76.40
23291;DHT22;11814;44.686;10.842;2024-01-10T14:43:42;7.80;76.70
23291;DHT22;11814;44.686;10.842;2024-01-10T14:46:08;7.80;77.00
23291;DHT22;11814;44.686;10.842;2024-01-10T14:48:35;7.80;76.70
23291;DHT22;11814;44.686;10.842;2024-01-10T14:51:01;7.70;76.80
23291;DHT22;11814;44.686;10.842;2024-01-10T14:53:27;7.80;77.20
23291;DHT22;11814;44.686;10.842;2024-01-10T14:55:53;7.80;77.50
23291;DHT22;11814;44.686;10.842;2024-01-10T14:58:18;7.80;77.10
23291;DHT22;11814;44.686;10.842;2024-01-10T15:00:45;7.80;77.30
23291;DHT22;11814;44.686;10.842;2024-01-10T15:03:11;7.80;77.60
23291;DHT22;11814;44.686;10.842;2024-01-10T15:05:38;7.70;77.30
23291;DHT22;11814;44.686;10.842;2024-01-10T15:08:04;7.70;77.20
23291;DHT22;11814;44.686;10.842;2024-01-10T15:10:37;7.60;77.10
23291;DHT22;11814;44.686;10.842;2024-01-10T15:13:09;7.60;77.10
23291;DHT22;11814;44.686;10.842;2024-01-10T15:15:37;7.60;77.50
23291;DHT22;11814;44.686;10.842;2024-01-10T15:18:04;7.60;77.80
23291;DHT22;11814;44.686;10.842;2024-01-10T15:20:29;7.50;78.10
23291;DHT22;11814;44.686;10.842;2024-01-10T15:22:55;7.50;78.50
23291;DHT22;11814;44.686;10.842;2024-01-10T15:25:21;7.40;78.90
23291;DHT22;11814;44.686;10.842;2024-01-10T15:27:47;7.30;78.90
23291;DHT22;11814;44.686;10.842;2024-01-10T15:30:13;7.30;79.10
23291;DHT22;11814;44.686;10.842;2024-01-10T15:32:39;7.20;79.00
23291;DHT22;11814;44.686;10.842;2024-01-10T15:35:04;7.10;79.10
23291;DHT22;11814;44.686;10.842;2024-01-10T15:37:30;7.10;79.10
23291;DHT22;11814;44.686;10.842;2024-01-10T15:39:56;7.00;79.10